sensor_id;sensor_type;location;lat;lon;timestamp;P1;durP1;ratioP1;P2;durP2;ratioP2
22363;SDS011;11349;53.412;-1.328;2023-07-20T00:01:30;8.57;;;3.10;;
22363;SDS011;11349;53.412;-1.328;2023-07-20T00:03:56;6.85;;;2.40;;
22363;SDS011;11349;53.412;-1.328;2023-07-20T00:06:22;7.50;;;2.42;;
22363;SDS011;11349;53.412;-1.328;2023-07-20T00:08:50;4.35;;;2.50;;
22363;SDS011;11349;53.412;-1.328;2023-07-20T00:11:16;4.75;;;2.20;;
22363;SDS011;11349;53.412;-1.328;2023-07-20T00:13:42;4.25;;;2.10;;
22363;SDS011;11349;53.412;-1.328;2023-07-20T00:16:08;3.85;;;2.00;;
22363;SDS011;11349;53.412;-1.328;2023-07-20T00:18:34;5.65;;;2.40;;
22363;SDS011;11349;53.412;-1.328;2023-07-20T00:20:59;3.78;;;2.22;;
22363;SDS011;11349;53.412;-1.328;2023-07-20T00:23:26;5.25;;;2.30;;
22363;SDS011;11349;53.412;-1.328;2023-07-20T00:25:52;4.90;;;2.47;;
22363;SDS011;11349;53.412;-1.328;2023-07-20T00:28:18;6.85;;;2.88;;
22363;SDS011;11349;53.412;-1.328;2023-07-20T00:30:44;7.53;;;2.60;;
22363;SDS011;11349;53.412;-1.328;2023-07-20T00:33:10;4.72;;;2.35;;
22363;SDS011;11349;53.412;-1.328;2023-07-20T00:35:36;5.90;;;2.35;;
22363;SDS011;11349;53.412;-1.328;2023-07-20T00:38:03;4.60;;;2.40;;
22363;SDS011;11349;53.412;-1.328;2023-07-20T00:40:35;4.97;;;2.72;;
22363;SDS011;11349;53.412;-1.328;2023-07-20T00:43:02;4.53;;;2.30;;
22363;SDS011;11349;53.412;-1.328;2023-07-20T00:45:28;5.75;;;2.80;;
22363;SDS011;11349;53.412;-1.328;2023-07-20T00:47:55;5.70;;;2.50;;
22363;SDS011;11349;53.412;-1.328;2023-07-20T00:50:22;4.57;;;2.50;;
22363;SDS011;11349;53.412;-1.328;2023-07-20T00:52:49;6.03;;;2.60;;
22363;SDS011;11349;53.412;-1.328;2023-07-20T00:55:15;5.85;;;2.80;;
22363;SDS011;11349;53.412;-1.328;2023-07-20T00:57:41;4.93;;;2.25;;
22363;SDS011;11349;53.412;-1.328;2023-07-20T01:00:07;8.32;;;2.72;;
22363;SDS011;11349;53.412;-1.328;2023-07-20T01:02:33;4.80;;;2.30;;
22363;SDS011;11349;53.412;-1.328;2023-07-20T01:04:59;5.65;;;2.45;;
22363;SDS011;11349;53.412;-1.328;2023-07-20T01:07:26;4.78;;;2.40;;
22363;SDS011;11349;53.412;-1.328;2023-07-20T01:10:16;4.03;;;2.05;;
22363;SDS011;11349;53.412;-1.328;2023-07-20T01:12:53;4.53;;;2.20;;
22363;SDS011;11349;53.412;-1.328;2023-07-20T01:15:20;4.07;;;2.17;;
22363;SDS011;11349;53.412;-1.328;2023-07-20T01:17:46;8.18;;;1.98;;
22363;SDS011;11349;53.412;-1.328;2023-07-20T01:20:15;3.90;;;2.20;;
22363;SDS011;11349;53.412;-1.328;2023-07-20T01:25:43;3.72;;;1.88;;
22363;SDS011;11349;53.412;-1.328;2023-07-20T01:33:54;7.88;;;3.33;;
22363;SDS011;11349;53.412;-1.328;2023-07-20T01:36:22;7.15;;;3.60;;
22363;SDS011;11349;53.412;-1.328;2023-07-20T01:38:51;7.30;;;3.90;;
22363;SDS011;11349;53.412;-1.328;2023-07-20T01:41:17;11.65;;;4.35;;
22363;SDS011;11349;53.412;-1.328;2023-07-20T01:43:43;9.20;;;4.30;;
22363;SDS011;11349;53.412;-1.328;2023-07-20T01:46:12;9.27;;;3.70;;
22363;SDS011;11349;53.412;-1.328;2023-07-20T01:48:38;8.55;;;4.05;;
22363;SDS011;11349;53.412;-1.328;2023-07-20T01:51:03;9.82;;;3.85;;
22363;SDS011;11349;53.412;-1.328;2023-07-20T01:53:29;12.25;;;4.00;;
22363;SDS011;11349;53.412;-1.328;2023-07-20T01:55:56;9.48;;;3.50;;
22363;SDS011;11349;53.412;-1.328;2023-07-20T01:58:22;7.07;;;3.03;;
22363;SDS011;11349;53.412;-1.328;2023-07-20T02:00:48;8.30;;;3.15;;
22363;SDS011;11349;53.412;-1.328;2023-07-20T02:03:14;6.95;;;2.88;;
22363;SDS011;11349;53.412;-1.328;2023-07-20T02:05:41;5.93;;;2.75;;
22363;SDS011;11349;53.412;-1.328;2023-07-20T02:08:07;6.22;;;2.88;;
22363;SDS011;11349;53.412;-1.328;2023-07-20T02:10:33;8.52;;;3.05;;
22363;SDS011;11349;53.412;-1.328;2023-07-20T02:13:02;6.53;;;2.97;;
22363;SDS011;11349;53.412;-1.328;2023-07-20T02:15:27;5.90;;;2.42;;
22363;SDS011;11349;53.412;-1.328;2023-07-20T02:17:53;4.95;;;2.90;;
22363;SDS011;11349;53.412;-1.328;2023-07-20T02:20:19;5.93;;;2.60;;
22363;SDS011;11349;53.412;-1.328;2023-07-20T02:22:45;6.38;;;2.58;;
22363;SDS011;11349;53.412;-1.328;2023-07-20T02:25:11;8.13;;;3.35;;
22363;SDS011;11349;53.412;-1.328;2023-07-20T02:27:37;8.93;;;3.38;;
22363;SDS011;11349;53.412;-1.328;2023-07-20T02:30:04;7.32;;;3.42;;
22363;SDS011;11349;53.412;-1.328;2023-07-20T02:32:30;8.35;;;3.22;;
22363;SDS011;11349;53.412;-1.328;2023-07-20T02:34:56;6.03;;;3.53;;
22363;SDS011;11349;53.412;-1.328;2023-07-20T02:37:23;7.03;;;3.38;;
22363;SDS011;11349;53.412;-1.328;2023-07-20T02:39:49;5.53;;;2.92;;
22363;SDS011;11349;53.412;-1.328;2023-07-20T02:42:15;5.82;;;3.05;;
22363;SDS011;11349;53.412;-1.328;2023-07-20T02:44:41;7.65;;;3.72;;
22363;SDS011;11349;53.412;-1.328;2023-07-20T02:47:06;6.60;;;3.83;;
22363;SDS011;11349;53.412;-1.328;2023-07-20T02:49:32;7.18;;;3.33;;
22363;SDS011;11349;53.412;-1.328;2023-07-20T02:51:58;8.50;;;3.30;;
22363;SDS011;11349;53.412;-1.328;2023-07-20T02:54:24;10.07;;;4.07;;
22363;SDS011;11349;53.412;-1.328;2023-07-20T02:56:49;6.82;;;3.38;;
22363;SDS011;11349;53.412;-1.328;2023-07-20T02:59:15;9.00;;;3.97;;
22363;SDS011;11349;53.412;-1.328;2023-07-20T03:01:41;7.63;;;3.50;;
22363;SDS011;11349;53.412;-1.328;2023-07-20T03:04:09;7.70;;;3.03;;
22363;SDS011;11349;53.412;-1.328;2023-07-20T03:06:35;4.65;;;2.60;;
22363;SDS011;11349;53.412;-1.328;2023-07-20T03:09:02;4.90;;;2.92;;
22363;SDS011;11349;53.412;-1.328;2023-07-20T03:11:28;7.07;;;2.72;;
22363;SDS011;11349;53.412;-1.328;2023-07-20T03:13:54;5.82;;;2.50;;
22363;SDS011;11349;53.412;-1.328;2023-07-20T03:16:21;7.15;;;2.88;;
22363;SDS011;11349;53.412;-1.328;2023-07-20T03:18:48;7.15;;;3.05;;
22363;SDS011;11349;53.412;-1.328;2023-07-20T03:21:14;7.68;;;3.78;;
22363;SDS011;11349;53.412;-1.328;2023-07-20T03:23:40;8.45;;;3.13;;
22363;SDS011;11349;53.412;-1.328;2023-07-20T03:26:06;6.75;;;3.50;;
22363;SDS011;11349;53.412;-1.328;2023-07-20T03:28:35;6.72;;;3.20;;
22363;SDS011;11349;53.412;-1.328;2023-07-20T03:31:01;6.95;;;3.22;;
22363;SDS011;11349;53.412;-1.328;2023-07-20T03:33:30;7.47;;;3.55;;
22363;SDS011;11349;53.412;-1.328;2023-07-20T03:35:57;6.68;;;3.50;;
22363;SDS011;11349;53.412;-1.328;2023-07-20T03:38:23;6.38;;;3.78;;
22363;SDS011;11349;53.412;-1.328;2023-07-20T03:40:50;7.45;;;3.65;;
22363;SDS011;11349;53.412;-1.328;2023-07-20T03:43:21;8.93;;;3.90;;
22363;SDS011;11349;53.412;-1.328;2023-07-20T03:45:47;6.63;;;4.03;;
22363;SDS011;11349;53.412;-1.328;2023-07-20T03:48:16;9.88;;;4.47;;
22363;SDS011;11349;53.412;-1.328;2023-07-20T03:50:45;8.07;;;4.20;;
22363;SDS011;11349;53.412;-1.328;2023-07-20T03:53:14;8.25;;;4.72;;
22363;SDS011;11349;53.412;-1.328;2023-07-20T03:55:49;10.13;;;4.47;;
22363;SDS011;11349;53.412;-1.328;2023-07-20T03:58:16;9.32;;;5.00;;
22363;SDS011;11349;53.412;-1.328;2023-07-20T04:00:44;7.70;;;4.32;;
22363;SDS011;11349;53.412;-1.328;2023-07-20T04:03:10;10.20;;;4.95;;
22363;SDS011;11349;53.412;-1.328;2023-07-20T04:05:36;8.80;;;4.32;;
22363;SDS011;11349;53.412;-1.328;2023-07-20T04:08:02;9.50;;;4.80;;
22363;SDS011;11349;53.412;-1.328;2023-07-20T04:10:28;8.35;;;4.70;;
22363;SDS011;11349;53.412;-1.328;2023-07-20T04:12:54;8.00;;;4.35;;
22363;SDS011;11349;53.412;-1.328;2023-07-20T04:15:19;8.20;;;4.45;;
22363;SDS011;11349;53.412;-1.328;2023-07-20T04:17:45;9.63;;;4.78;;
22363;SDS011;11349;53.412;-1.328;2023-07-20T04:20:11;10.35;;;4.72;;
22363;SDS011;11349;53.412;-1.328;2023-07-20T04:22:37;10.93;;;4.50;;
22363;SDS011;11349;53.412;-1.328;2023-07-20T04:25:03;8.95;;;4.53;;
22363;SDS011;11349;53.412;-1.328;2023-07-20T04:27:29;9.10;;;4.72;;
22363;SDS011;11349;53.412;-1.328;2023-07-20T04:29:55;9.57;;;4.50;;
22363;SDS011;11349;53.412;-1.328;2023-07-20T04:32:22;10.02;;;4.95;;
22363;SDS011;11349;53.412;-1.328;2023-07-20T04:34:48;8.38;;;5.13;;
22363;SDS011;11349;53.412;-1.328;2023-07-20T04:37:14;8.95;;;5.13;;
22363;SDS011;11349;53.412;-1.328;2023-07-20T04:39:40;12.88;;;4.85;;
22363;SDS011;11349;53.412;-1.328;2023-07-20T04:42:06;10.05;;;5.22;;
22363;SDS011;11349;53.412;-1.328;2023-07-20T04:44:31;11.10;;;5.28;;
22363;SDS011;11349;53.412;-1.328;2023-07-20T04:46:57;7.10;;;4.30;;
22363;SDS011;11349;53.412;-1.328;2023-07-20T04:49:23;11.68;;;5.57;;
22363;SDS011;11349;53.412;-1.328;2023-07-20T04:51:48;9.40;;;5.00;;
22363;SDS011;11349;53.412;-1.328;2023-07-20T04:54:14;10.15;;;4.93;;
22363;SDS011;11349;53.412;-1.328;2023-07-20T04:56:41;8.80;;;4.38;;
22363;SDS011;11349;53.412;-1.328;2023-07-20T04:59:07;8.77;;;4.95;;
22363;SDS011;11349;53.412;-1.328;2023-07-20T05:01:32;8.10;;;4.20;;
22363;SDS011;11349;53.412;-1.328;2023-07-20T05:03:58;9.00;;;4.75;;
22363;SDS011;11349;53.412;-1.328;2023-07-20T05:06:24;8.85;;;4.45;;
22363;SDS011;11349;53.412;-1.328;2023-07-20T05:08:50;10.50;;;4.32;;
22363;SDS011;11349;53.412;-1.328;2023-07-20T05:11:16;9.90;;;4.72;;
22363;SDS011;11349;53.412;-1.328;2023-07-20T05:13:42;8.82;;;4.82;;
22363;SDS011;11349;53.412;-1.328;2023-07-20T05:16:07;9.52;;;4.60;;
22363;SDS011;11349;53.412;-1.328;2023-07-20T05:18:33;10.52;;;4.53;;
22363;SDS011;11349;53.412;-1.328;2023-07-20T05:20:59;10.20;;;4.82;;
22363;SDS011;11349;53.412;-1.328;2023-07-20T05:23:24;7.93;;;4.68;;
22363;SDS011;11349;53.412;-1.328;2023-07-20T05:25:54;8.52;;;4.95;;
22363;SDS011;11349;53.412;-1.328;2023-07-20T05:28:21;7.47;;;4.05;;
22363;SDS011;11349;53.412;-1.328;2023-07-20T05:30:47;7.85;;;4.20;;
22363;SDS011;11349;53.412;-1.328;2023-07-20T05:33:17;7.88;;;4.97;;
22363;SDS011;11349;53.412;-1.328;2023-07-20T05:35:43;11.23;;;4.50;;
22363;SDS011;11349;53.412;-1.328;2023-07-20T05:38:09;9.70;;;4.55;;
22363;SDS011;11349;53.412;-1.328;2023-07-20T05:40:37;11.00;;;5.18;;
22363;SDS011;11349;53.412;-1.328;2023-07-20T05:43:07;10.20;;;4.32;;
22363;SDS011;11349;53.412;-1.328;2023-07-20T05:45:32;11.10;;;5.10;;
22363;SDS011;11349;53.412;-1.328;2023-07-20T05:47:58;9.07;;;4.85;;
22363;SDS011;11349;53.412;-1.328;2023-07-20T05:50:24;10.00;;;5.10;;
22363;SDS011;11349;53.412;-1.328;2023-07-20T05:52:52;12.73;;;4.90;;
22363;SDS011;11349;53.412;-1.328;2023-07-20T05:55:18;9.75;;;4.95;;
22363;SDS011;11349;53.412;-1.328;2023-07-20T05:57:43;10.60;;;5.38;;
22363;SDS011;11349;53.412;-1.328;2023-07-20T06:00:09;8.85;;;5.03;;
22363;SDS011;11349;53.412;-1.328;2023-07-20T06:02:40;9.32;;;4.60;;
22363;SDS011;11349;53.412;-1.328;2023-07-20T06:05:06;10.52;;;5.90;;
22363;SDS011;11349;53.412;-1.328;2023-07-20T06:07:36;10.45;;;5.20;;
22363;SDS011;11349;53.412;-1.328;2023-07-20T06:10:02;10.63;;;5.18;;
22363;SDS011;11349;53.412;-1.328;2023-07-20T06:12:28;11.90;;;5.38;;
22363;SDS011;11349;53.412;-1.328;2023-07-20T06:14:53;10.23;;;4.75;;
22363;SDS011;11349;53.412;-1.328;2023-07-20T06:17:19;14.68;;;6.50;;
22363;SDS011;11349;53.412;-1.328;2023-07-20T06:19:45;9.85;;;5.22;;
22363;SDS011;11349;53.412;-1.328;2023-07-20T06:22:11;9.90;;;4.50;;
22363;SDS011;11349;53.412;-1.328;2023-07-20T06:24:37;10.27;;;4.28;;
22363;SDS011;11349;53.412;-1.328;2023-07-20T06:27:03;10.45;;;4.20;;
22363;SDS011;11349;53.412;-1.328;2023-07-20T06:29:30;12.02;;;4.97;;
22363;SDS011;11349;53.412;-1.328;2023-07-20T06:31:56;9.30;;;4.68;;
22363;SDS011;11349;53.412;-1.328;2023-07-20T06:34:22;9.60;;;5.00;;
22363;SDS011;11349;53.412;-1.328;2023-07-20T06:36:48;12.75;;;5.15;;
22363;SDS011;11349;53.412;-1.328;2023-07-20T06:39:13;11.38;;;4.93;;
22363;SDS011;11349;53.412;-1.328;2023-07-20T06:41:39;10.40;;;5.32;;
22363;SDS011;11349;53.412;-1.328;2023-07-20T06:44:05;13.35;;;5.45;;
22363;SDS011;11349;53.412;-1.328;2023-07-20T06:46:30;13.30;;;5.78;;
22363;SDS011;11349;53.412;-1.328;2023-07-20T06:48:56;11.52;;;4.57;;
22363;SDS011;11349;53.412;-1.328;2023-07-20T06:51:22;9.60;;;5.13;;
22363;SDS011;11349;53.412;-1.328;2023-07-20T06:53:48;18.73;;;6.30;;
22363;SDS011;11349;53.412;-1.328;2023-07-20T06:56:13;10.60;;;5.60;;
22363;SDS011;11349;53.412;-1.328;2023-07-20T06:58:39;12.00;;;5.53;;
22363;SDS011;11349;53.412;-1.328;2023-07-20T07:01:05;16.20;;;6.35;;
22363;SDS011;11349;53.412;-1.328;2023-07-20T07:03:32;13.95;;;6.75;;
22363;SDS011;11349;53.412;-1.328;2023-07-20T07:05:58;14.63;;;7.65;;
22363;SDS011;11349;53.412;-1.328;2023-07-20T07:08:24;14.30;;;8.57;;
22363;SDS011;11349;53.412;-1.328;2023-07-20T07:10:50;14.57;;;7.50;;
22363;SDS011;11349;53.412;-1.328;2023-07-20T07:13:17;13.77;;;8.38;;
22363;SDS011;11349;53.412;-1.328;2023-07-20T07:15:42;15.40;;;8.30;;
22363;SDS011;11349;53.412;-1.328;2023-07-20T07:18:08;13.27;;;8.25;;
22363;SDS011;11349;53.412;-1.328;2023-07-20T07:20:34;13.93;;;8.52;;
22363;SDS011;11349;53.412;-1.328;2023-07-20T07:22:59;14.82;;;7.82;;
22363;SDS011;11349;53.412;-1.328;2023-07-20T07:25:25;12.63;;;8.07;;
22363;SDS011;11349;53.412;-1.328;2023-07-20T07:27:52;16.52;;;8.68;;
22363;SDS011;11349;53.412;-1.328;2023-07-20T07:30:18;15.05;;;9.05;;
22363;SDS011;11349;53.412;-1.328;2023-07-20T07:32:45;14.20;;;9.10;;
22363;SDS011;11349;53.412;-1.328;2023-07-20T07:35:10;20.65;;;10.82;;
22363;SDS011;11349;53.412;-1.328;2023-07-20T07:37:36;16.15;;;9.80;;
22363;SDS011;11349;53.412;-1.328;2023-07-20T07:40:02;15.85;;;9.98;;
22363;SDS011;11349;53.412;-1.328;2023-07-20T07:42:29;20.50;;;10.57;;
22363;SDS011;11349;53.412;-1.328;2023-07-20T07:44:55;13.27;;;8.98;;
22363;SDS011;11349;53.412;-1.328;2023-07-20T07:47:20;16.35;;;9.05;;
22363;SDS011;11349;53.412;-1.328;2023-07-20T07:49:46;19.70;;;10.13;;
22363;SDS011;11349;53.412;-1.328;2023-07-20T07:52:12;14.95;;;9.70;;
22363;SDS011;11349;53.412;-1.328;2023-07-20T07:54:39;14.52;;;9.30;;
22363;SDS011;11349;53.412;-1.328;2023-07-20T07:57:05;16.88;;;11.45;;
22363;SDS011;11349;53.412;-1.328;2023-07-20T07:59:31;16.58;;;8.95;;
22363;SDS011;11349;53.412;-1.328;2023-07-20T08:02:01;15.05;;;8.98;;
22363;SDS011;11349;53.412;-1.328;2023-07-20T08:04:28;16.33;;;10.32;;
22363;SDS011;11349;53.412;-1.328;2023-07-20T08:06:56;16.17;;;9.98;;
22363;SDS011;11349;53.412;-1.328;2023-07-20T08:09:22;17.00;;;9.80;;
22363;SDS011;11349;53.412;-1.328;2023-07-20T08:11:48;13.27;;;9.35;;
22363;SDS011;11349;53.412;-1.328;2023-07-20T08:14:15;13.23;;;8.90;;
22363;SDS011;11349;53.412;-1.328;2023-07-20T08:16:43;12.43;;;8.45;;
22363;SDS011;11349;53.412;-1.328;2023-07-20T08:19:09;16.20;;;8.48;;
22363;SDS011;11349;53.412;-1.328;2023-07-20T08:21:34;13.50;;;8.27;;
22363;SDS011;11349;53.412;-1.328;2023-07-20T08:24:00;14.68;;;9.25;;
22363;SDS011;11349;53.412;-1.328;2023-07-20T08:26:26;15.02;;;7.90;;
22363;SDS011;11349;53.412;-1.328;2023-07-20T08:28:51;12.07;;;8.45;;
22363;SDS011;11349;53.412;-1.328;2023-07-20T08:31:17;14.32;;;8.75;;
22363;SDS011;11349;53.412;-1.328;2023-07-20T08:33:43;11.57;;;8.07;;
22363;SDS011;11349;53.412;-1.328;2023-07-20T08:36:09;11.80;;;7.10;;
22363;SDS011;11349;53.412;-1.328;2023-07-20T08:38:34;12.45;;;7.63;;
22363;SDS011;11349;53.412;-1.328;2023-07-20T08:41:00;11.98;;;7.55;;
22363;SDS011;11349;53.412;-1.328;2023-07-20T08:43:27;11.20;;;8.07;;
22363;SDS011;11349;53.412;-1.328;2023-07-20T08:45:54;11.68;;;8.07;;
22363;SDS011;11349;53.412;-1.328;2023-07-20T08:48:23;10.98;;;7.28;;
22363;SDS011;11349;53.412;-1.328;2023-07-20T08:50:50;12.10;;;7.07;;
22363;SDS011;11349;53.412;-1.328;2023-07-20T08:53:21;9.55;;;7.35;;
22363;SDS011;11349;53.412;-1.328;2023-07-20T08:55:48;13.00;;;7.28;;
22363;SDS011;11349;53.412;-1.328;2023-07-20T08:58:16;9.90;;;7.35;;
22363;SDS011;11349;53.412;-1.328;2023-07-20T09:00:43;11.95;;;7.45;;
22363;SDS011;11349;53.412;-1.328;2023-07-20T09:03:10;13.35;;;7.70;;
22363;SDS011;11349;53.412;-1.328;2023-07-20T09:05:36;10.48;;;6.97;;
22363;SDS011;11349;53.412;-1.328;2023-07-20T09:08:03;10.80;;;7.88;;
22363;SDS011;11349;53.412;-1.328;2023-07-20T09:10:30;12.77;;;7.45;;
22363;SDS011;11349;53.412;-1.328;2023-07-20T09:12:56;9.90;;;7.00;;
22363;SDS011;11349;53.412;-1.328;2023-07-20T09:15:22;12.15;;;7.75;;
22363;SDS011;11349;53.412;-1.328;2023-07-20T09:17:48;10.95;;;7.82;;
22363;SDS011;11349;53.412;-1.328;2023-07-20T09:20:16;11.85;;;7.85;;
22363;SDS011;11349;53.412;-1.328;2023-07-20T09:22:43;13.60;;;7.50;;
22363;SDS011;11349;53.412;-1.328;2023-07-20T09:25:13;9.77;;;6.78;;
22363;SDS011;11349;53.412;-1.328;2023-07-20T09:27:41;12.20;;;7.65;;
22363;SDS011;11349;53.412;-1.328;2023-07-20T09:30:08;9.45;;;6.75;;
22363;SDS011;11349;53.412;-1.328;2023-07-20T09:32:40;9.63;;;6.72;;
22363;SDS011;11349;53.412;-1.328;2023-07-20T09:35:12;10.93;;;7.25;;
22363;SDS011;11349;53.412;-1.328;2023-07-20T09:40:20;11.90;;;7.10;;
22363;SDS011;11349;53.412;-1.328;2023-07-20T09:42:46;13.27;;;7.55;;
22363;SDS011;11349;53.412;-1.328;2023-07-20T09:45:15;14.13;;;8.30;;
22363;SDS011;11349;53.412;-1.328;2023-07-20T09:47:41;9.07;;;6.53;;
22363;SDS011;11349;53.412;-1.328;2023-07-20T09:50:07;11.65;;;7.43;;
22363;SDS011;11349;53.412;-1.328;2023-07-20T09:52:40;10.50;;;7.45;;
22363;SDS011;11349;53.412;-1.328;2023-07-20T09:55:09;10.32;;;6.95;;
22363;SDS011;11349;53.412;-1.328;2023-07-20T09:57:36;10.35;;;7.50;;
22363;SDS011;11349;53.412;-1.328;2023-07-20T10:00:03;13.52;;;7.35;;
22363;SDS011;11349;53.412;-1.328;2023-07-20T10:02:42;10.73;;;6.68;;
22363;SDS011;11349;53.412;-1.328;2023-07-20T10:05:09;9.93;;;7.10;;
22363;SDS011;11349;53.412;-1.328;2023-07-20T10:07:43;12.23;;;7.47;;
22363;SDS011;11349;53.412;-1.328;2023-07-20T10:10:11;12.20;;;7.15;;
22363;SDS011;11349;53.412;-1.328;2023-07-20T10:12:39;11.48;;;7.20;;
22363;SDS011;11349;53.412;-1.328;2023-07-20T10:15:20;10.95;;;6.53;;
22363;SDS011;11349;53.412;-1.328;2023-07-20T10:20:37;12.75;;;7.65;;
22363;SDS011;11349;53.412;-1.328;2023-07-20T10:23:08;9.52;;;6.72;;
22363;SDS011;11349;53.412;-1.328;2023-07-20T10:25:35;12.23;;;7.65;;
22363;SDS011;11349;53.412;-1.328;2023-07-20T10:28:05;9.75;;;7.35;;
22363;SDS011;11349;53.412;-1.328;2023-07-20T10:30:32;11.45;;;7.10;;
22363;SDS011;11349;53.412;-1.328;2023-07-20T10:33:02;10.45;;;6.63;;
22363;SDS011;11349;53.412;-1.328;2023-07-20T10:35:53;12.70;;;6.97;;
22363;SDS011;11349;53.412;-1.328;2023-07-20T10:38:18;11.82;;;8.15;;
22363;SDS011;11349;53.412;-1.328;2023-07-20T10:40:53;10.07;;;7.60;;
22363;SDS011;11349;53.412;-1.328;2023-07-20T10:43:20;14.40;;;7.07;;
22363;SDS011;11349;53.412;-1.328;2023-07-20T10:45:49;12.45;;;7.82;;
22363;SDS011;11349;53.412;-1.328;2023-07-20T10:48:23;14.63;;;8.25;;
22363;SDS011;11349;53.412;-1.328;2023-07-20T10:53:41;11.75;;;7.90;;
22363;SDS011;11349;53.412;-1.328;2023-07-20T10:56:20;11.82;;;8.13;;
22363;SDS011;11349;53.412;-1.328;2023-07-20T10:58:47;10.68;;;7.95;;
22363;SDS011;11349;53.412;-1.328;2023-07-20T11:01:13;13.57;;;7.70;;
22363;SDS011;11349;53.412;-1.328;2023-07-20T11:03:41;14.05;;;8.35;;
22363;SDS011;11349;53.412;-1.328;2023-07-20T11:11:47;12.98;;;8.77;;
22363;SDS011;11349;53.412;-1.328;2023-07-20T11:14:20;15.13;;;10.43;;
22363;SDS011;11349;53.412;-1.328;2023-07-20T11:16:50;14.50;;;9.10;;
22363;SDS011;11349;53.412;-1.328;2023-07-20T11:19:18;15.98;;;9.38;;
22363;SDS011;11349;53.412;-1.328;2023-07-20T11:21:52;12.60;;;7.45;;
22363;SDS011;11349;53.412;-1.328;2023-07-20T11:24:19;11.13;;;7.65;;
22363;SDS011;11349;53.412;-1.328;2023-07-20T11:26:46;12.00;;;8.57;;
22363;SDS011;11349;53.412;-1.328;2023-07-20T11:29:13;11.57;;;7.78;;
22363;SDS011;11349;53.412;-1.328;2023-07-20T11:31:41;9.43;;;7.43;;
22363;SDS011;11349;53.412;-1.328;2023-07-20T11:34:11;9.93;;;6.90;;
22363;SDS011;11349;53.412;-1.328;2023-07-20T11:36:39;10.57;;;7.15;;
22363;SDS011;11349;53.412;-1.328;2023-07-20T11:39:07;12.90;;;7.72;;
22363;SDS011;11349;53.412;-1.328;2023-07-20T11:41:34;10.57;;;6.57;;
22363;SDS011;11349;53.412;-1.328;2023-07-20T11:44:00;11.00;;;7.05;;
22363;SDS011;11349;53.412;-1.328;2023-07-20T11:46:27;13.38;;;7.50;;
22363;SDS011;11349;53.412;-1.328;2023-07-20T11:48:59;9.32;;;5.93;;
22363;SDS011;11349;53.412;-1.328;2023-07-20T11:51:28;10.52;;;6.07;;
22363;SDS011;11349;53.412;-1.328;2023-07-20T11:53:56;8.55;;;5.53;;
22363;SDS011;11349;53.412;-1.328;2023-07-20T11:56:25;8.18;;;5.78;;
22363;SDS011;11349;53.412;-1.328;2023-07-20T11:58:54;8.52;;;6.13;;
22363;SDS011;11349;53.412;-1.328;2023-07-20T12:01:22;7.95;;;5.28;;
22363;SDS011;11349;53.412;-1.328;2023-07-20T12:03:49;8.07;;;6.07;;
22363;SDS011;11349;53.412;-1.328;2023-07-20T12:06:15;11.45;;;6.40;;
22363;SDS011;11349;53.412;-1.328;2023-07-20T12:08:41;8.60;;;6.38;;
22363;SDS011;11349;53.412;-1.328;2023-07-20T12:11:09;9.35;;;5.97;;
22363;SDS011;11349;53.412;-1.328;2023-07-20T12:13:40;8.65;;;6.00;;
22363;SDS011;11349;53.412;-1.328;2023-07-20T12:16:12;8.55;;;6.43;;
22363;SDS011;11349;53.412;-1.328;2023-07-20T12:18:39;9.45;;;6.30;;
22363;SDS011;11349;53.412;-1.328;2023-07-20T12:21:06;12.85;;;6.90;;
22363;SDS011;11349;53.412;-1.328;2023-07-20T12:23:39;9.43;;;6.65;;
22363;SDS011;11349;53.412;-1.328;2023-07-20T12:26:06;9.57;;;6.32;;
22363;SDS011;11349;53.412;-1.328;2023-07-20T12:28:35;7.63;;;5.93;;
22363;SDS011;11349;53.412;-1.328;2023-07-20T12:31:08;10.25;;;6.53;;
22363;SDS011;11349;53.412;-1.328;2023-07-20T12:33:36;9.77;;;6.90;;
22363;SDS011;11349;53.412;-1.328;2023-07-20T12:36:03;8.07;;;6.35;;
22363;SDS011;11349;53.412;-1.328;2023-07-20T12:38:29;7.97;;;5.53;;
22363;SDS011;11349;53.412;-1.328;2023-07-20T12:40:58;8.32;;;5.85;;
22363;SDS011;11349;53.412;-1.328;2023-07-20T12:43:26;10.13;;;6.20;;
22363;SDS011;11349;53.412;-1.328;2023-07-20T12:45:52;9.43;;;6.50;;
22363;SDS011;11349;53.412;-1.328;2023-07-20T12:48:18;8.75;;;5.85;;
22363;SDS011;11349;53.412;-1.328;2023-07-20T12:50:43;8.68;;;5.85;;
22363;SDS011;11349;53.412;-1.328;2023-07-20T12:53:09;8.43;;;5.15;;
22363;SDS011;11349;53.412;-1.328;2023-07-20T12:55:35;7.93;;;5.47;;
22363;SDS011;11349;53.412;-1.328;2023-07-20T12:58:00;8.02;;;4.82;;
22363;SDS011;11349;53.412;-1.328;2023-07-20T13:00:26;5.05;;;3.83;;
22363;SDS011;11349;53.412;-1.328;2023-07-20T13:02:52;6.47;;;4.68;;
22363;SDS011;11349;53.412;-1.328;2023-07-20T13:05:18;6.20;;;4.40;;
22363;SDS011;11349;53.412;-1.328;2023-07-20T13:07:43;6.78;;;4.78;;
22363;SDS011;11349;53.412;-1.328;2023-07-20T13:10:10;5.88;;;4.53;;
22363;SDS011;11349;53.412;-1.328;2023-07-20T13:12:37;7.55;;;4.60;;
22363;SDS011;11349;53.412;-1.328;2023-07-20T13:15:03;5.45;;;4.00;;
22363;SDS011;11349;53.412;-1.328;2023-07-20T13:17:31;6.53;;;4.28;;
22363;SDS011;11349;53.412;-1.328;2023-07-20T13:19:58;6.88;;;4.50;;
22363;SDS011;11349;53.412;-1.328;2023-07-20T13:22:24;6.63;;;4.40;;
22363;SDS011;11349;53.412;-1.328;2023-07-20T13:24:49;7.05;;;4.22;;
22363;SDS011;11349;53.412;-1.328;2023-07-20T13:27:23;6.03;;;4.15;;
22363;SDS011;11349;53.412;-1.328;2023-07-20T13:29:50;6.18;;;3.80;;
22363;SDS011;11349;53.412;-1.328;2023-07-20T13:32:16;6.35;;;3.78;;
22363;SDS011;11349;53.412;-1.328;2023-07-20T13:34:46;5.35;;;3.53;;
22363;SDS011;11349;53.412;-1.328;2023-07-20T13:37:12;6.10;;;4.40;;
22363;SDS011;11349;53.412;-1.328;2023-07-20T13:39:38;5.28;;;3.83;;
22363;SDS011;11349;53.412;-1.328;2023-07-20T13:42:04;7.07;;;3.90;;
22363;SDS011;11349;53.412;-1.328;2023-07-20T13:44:31;6.38;;;3.97;;
22363;SDS011;11349;53.412;-1.328;2023-07-20T13:46:57;7.30;;;3.97;;
22363;SDS011;11349;53.412;-1.328;2023-07-20T13:49:23;6.15;;;4.03;;
22363;SDS011;11349;53.412;-1.328;2023-07-20T13:51:48;5.82;;;4.00;;
22363;SDS011;11349;53.412;-1.328;2023-07-20T13:54:14;7.60;;;3.90;;
22363;SDS011;11349;53.412;-1.328;2023-07-20T13:56:40;5.75;;;3.80;;
22363;SDS011;11349;53.412;-1.328;2023-07-20T13:59:06;4.75;;;3.45;;
22363;SDS011;11349;53.412;-1.328;2023-07-20T14:01:31;4.90;;;3.58;;
22363;SDS011;11349;53.412;-1.328;2023-07-20T14:03:59;5.00;;;3.40;;
22363;SDS011;11349;53.412;-1.328;2023-07-20T14:06:26;6.43;;;4.15;;
22363;SDS011;11349;53.412;-1.328;2023-07-20T14:08:54;5.68;;;4.10;;
22363;SDS011;11349;53.412;-1.328;2023-07-20T14:11:20;6.78;;;4.40;;
22363;SDS011;11349;53.412;-1.328;2023-07-20T14:13:46;6.50;;;4.00;;
22363;SDS011;11349;53.412;-1.328;2023-07-20T14:16:11;6.93;;;3.90;;
22363;SDS011;11349;53.412;-1.328;2023-07-20T14:18:37;7.18;;;3.90;;
22363;SDS011;11349;53.412;-1.328;2023-07-20T14:21:03;7.47;;;4.10;;
22363;SDS011;11349;53.412;-1.328;2023-07-20T14:23:32;6.93;;;4.40;;
22363;SDS011;11349;53.412;-1.328;2023-07-20T14:25:58;5.90;;;3.45;;
22363;SDS011;11349;53.412;-1.328;2023-07-20T14:28:24;7.00;;;4.00;;
22363;SDS011;11349;53.412;-1.328;2023-07-20T14:30:50;9.00;;;4.30;;
22363;SDS011;11349;53.412;-1.328;2023-07-20T14:33:15;6.50;;;3.78;;
22363;SDS011;11349;53.412;-1.328;2023-07-20T14:35:41;8.52;;;3.58;;
22363;SDS011;11349;53.412;-1.328;2023-07-20T14:38:07;7.85;;;3.58;;
22363;SDS011;11349;53.412;-1.328;2023-07-20T14:40:32;4.55;;;3.20;;
22363;SDS011;11349;53.412;-1.328;2023-07-20T14:42:58;7.10;;;3.50;;
22363;SDS011;11349;53.412;-1.328;2023-07-20T14:45:28;5.72;;;2.90;;
22363;SDS011;11349;53.412;-1.328;2023-07-20T14:47:54;6.45;;;3.50;;
22363;SDS011;11349;53.412;-1.328;2023-07-20T14:50:21;5.45;;;3.65;;